tititudorancea.com
Station Historical Data
Daily Summary for January 24, 2018 Units:  Metric    English   Both
« Previous Day
Next Day »
Daily Weekly Monthly Yearly Custom
  High: Low: Average:
Temperature: -17.8 °C 11.1 °C 19.5 °C
Dew Point: -17.8 °C 6.1 °C 10.4 °C
Humidity: Humidity % 24 % 62 %
Wind Speed: 0 km/h 2.6 km/h 11.9 km/h
Wind Gust: 0 km/h - -
Wind:- - SSW
Pressure: 0 hPa 1005.3 hPa -
Precipitation: 0 mm    
Historical Graphs
 
 
Ararat weather Find more about Weather in Ararat, AU


 



 


Tabular Data for January 24, 2018
Time Temperature Dew Point Pressure Wind Wind Speed Wind Gust Humidity Rainfall Rate (Hourly)
-17.8 °C -17.8 °C 0 hPa Calm     Humidity % 0 mm
00:09 15.1 °C 10.1 °C 1009 hPa SSW 11.6 km/h 14.8 km/h 72 % 0 mm
00:14 15.1 °C 10.1 °C 1009 hPa South 7.7 km/h 9.3 km/h 72 % 0 mm
00:24 14.9 °C 10.1 °C 1008.7 hPa SSW 10 km/h 14.8 km/h 73 % 0 mm
00:29 14.8 °C 10.2 °C 1008.7 hPa South 13.2 km/h 18.5 km/h 74 % 0 mm
00:34 14.7 °C 10.1 °C 1008.4 hPa South 13.2 km/h 18.5 km/h 74 % 0 mm
00:39 14.7 °C 10.3 °C 1008.4 hPa SSW 12.7 km/h 18.5 km/h 75 % 0 mm
00:49 14.5 °C 10.3 °C 1008.4 hPa North 8.5 km/h 18.5 km/h 76 % 0 mm
00:54 14.4 °C 10.4 °C 1008.4 hPa SSW 10.3 km/h 13 km/h 77 % 0 mm
00:59 14.3 °C 10.3 °C 1008.4 hPa South 8.9 km/h 13 km/h 77 % 0 mm
01:14 14 °C 10.2 °C 1008 hPa SSW 9.2 km/h 11.3 km/h 78 % 0 mm
01:19 13.8 °C 10.2 °C 1008 hPa SSW 5.3 km/h 9.7 km/h 79 % 0 mm
01:29 13.5 °C 10.1 °C 1008 hPa North 6 km/h 13 km/h 80 % 0 mm
01:39 13.2 °C 9.8 °C 1008 hPa SSW 7.1 km/h 9.3 km/h 80 % 0 mm
01:44 13.2 °C 10 °C 1008 hPa North 6.1 km/h 11.1 km/h 81 % 0 mm
01:49 13.2 °C 10 °C 1008 hPa SSW 8.2 km/h 13 km/h 81 % 0 mm
01:59 13.1 °C 10.1 °C 1008 hPa North 6.9 km/h 8 km/h 82 % 0 mm
02:04 13.1 °C 10.2 °C 1008 hPa SSW 9.3 km/h 11.1 km/h 83 % 0 mm
02:09 13 °C 10.2 °C 1008 hPa SSW 8.2 km/h 12.9 km/h 83 % 0 mm
02:19 12.9 °C 10.3 °C 1008 hPa SSW 7.1 km/h 7.4 km/h 84 % 0 mm
02:24 12.9 °C 10.3 °C 1008 hPa SSW 10.6 km/h 18.5 km/h 84 % 0 mm
02:29 12.9 °C 10.5 °C 1008 hPa SSW 9.2 km/h 12.9 km/h 85 % 0 mm
02:44 12.9 °C 10.4 °C 1007.7 hPa North 9.7 km/h 16.7 km/h 85 % 0 mm
02:49 12.8 °C 10.6 °C 1007.7 hPa SSW 9.7 km/h 16.7 km/h 86 % 0 mm
02:59 12.8 °C 10.5 °C 1007.7 hPa South 12.6 km/h 18.5 km/h 86 % 0 mm
03:04 12.7 °C 10.6 °C 1007.7 hPa South 8.7 km/h 11.3 km/h 87 % 0 mm
03:09 12.7 °C 10.6 °C 1007.7 hPa South 8.9 km/h 14.8 km/h 87 % 0 mm
03:14 12.6 °C 10.5 °C 1007.7 hPa South 9.7 km/h 13 km/h 87 % 0 mm
03:19 12.6 °C 10.4 °C 1007.7 hPa South 10.1 km/h 13 km/h 87 % 0 mm
03:24 12.5 °C 10.6 °C 1007.7 hPa South 7.7 km/h 14.8 km/h 88 % 0 mm
03:29 12.4 °C 10.5 °C 1007.7 hPa South 12.1 km/h 13 km/h 88 % 0 mm
03:34 12.4 °C 10.4 °C 1007.7 hPa South 6.4 km/h 11.1 km/h 88 % 0 mm
03:39 12.3 °C 10.4 °C 1007.7 hPa SSW 8 km/h 13 km/h 88 % 0 mm
03:44 12.3 °C 10.5 °C 1007.7 hPa SSW 6.4 km/h 7.4 km/h 89 % 0 mm
03:49 12.2 °C 10.4 °C 1007.7 hPa South 5.1 km/h 11.1 km/h 89 % 0 mm
03:54 12.1 °C 10.3 °C 1007.7 hPa North 6.9 km/h 8 km/h 89 % 0 mm
04:04 12 °C 10.4 °C 1007.3 hPa North 7.6 km/h 12.9 km/h 90 % 0 mm
04:09 12 °C 10.4 °C 1007.3 hPa North 8.4 km/h 14.8 km/h 90 % 0 mm
04:14 12 °C 10.4 °C 1007.3 hPa North 7.9 km/h 13 km/h 90 % 0 mm
04:19 11.9 °C 10.3 °C 1007.3 hPa South 8.4 km/h 14.8 km/h 90 % 0 mm
04:24 11.9 °C 10.3 °C 1007.7 hPa South 4.7 km/h 5.6 km/h 90 % 0 mm
04:29 11.8 °C 10.2 °C 1007.3 hPa North 4.2 km/h 6.4 km/h 90 % 0 mm
04:39 11.7 °C 10.1 °C 1007.3 hPa South 6.1 km/h 9.3 km/h 90 % 0 mm
04:44 11.6 °C 10.2 °C 1007.3 hPa South 7.4 km/h 11.1 km/h 91 % 0 mm
04:49 11.6 °C 10.1 °C 1007.3 hPa North 5.8 km/h 11.1 km/h 91 % 0 mm
04:54 11.6 °C 10.1 °C 1007.3 hPa South 6.1 km/h 11.3 km/h 91 % 0 mm
04:59 11.5 °C 10.1 °C 1007.7 hPa South 6.9 km/h 9.7 km/h 91 % 0 mm
05:04 11.6 °C 10.1 °C 1007.3 hPa North 8.4 km/h 14.8 km/h 91 % 0 mm
05:09 11.5 °C 10.1 °C 1007.3 hPa South 9.8 km/h 16.7 km/h 91 % 0 mm
05:14 11.4 °C 10.2 °C 1007.3 hPa North 10.1 km/h 13 km/h 92 % 0 mm
05:19 11.4 °C 10.1 °C 1007.7 hPa South 8 km/h 11.1 km/h 92 % 0 mm
05:24 11.4 °C 10.1 °C 1007.7 hPa North 7.7 km/h 11.1 km/h 92 % 0 mm
05:29 11.4 °C 10.1 °C 1007.7 hPa SSW 5.5 km/h 8 km/h 92 % 0 mm
05:34 11.5 °C 10.2 °C 1007.7 hPa South 7.9 km/h 11.1 km/h 92 % 0 mm
05:39 11.5 °C 10.2 °C 1007.7 hPa North 8.2 km/h 14.8 km/h 92 % 0 mm
05:44 11.5 °C 10.2 °C 1007.7 hPa SSW 10.3 km/h 14.8 km/h 92 % 0 mm
05:54 11.4 °C 10.3 °C 1007.7 hPa SSW 8.4 km/h 14.8 km/h 93 % 0 mm
05:59 11.5 °C 10.4 °C 1007.7 hPa South 8.7 km/h 13 km/h 93 % 0 mm
06:04 11.6 °C 10.5 °C 1007.7 hPa North 7.6 km/h 12.9 km/h 93 % 0 mm
06:09 11.6 °C 10.5 °C 1008 hPa South 8.9 km/h 14.8 km/h 93 % 0 mm
06:14 11.6 °C 10.5 °C 1008 hPa South 10.9 km/h 13 km/h 93 % 0 mm
06:19 11.6 °C 10.4 °C 1008.4 hPa North 13.2 km/h 16.7 km/h 93 % 0 mm
06:24 11.6 °C 10.4 °C 1008.4 hPa North 6.6 km/h 7.4 km/h 93 % 0 mm
06:29 11.4 °C 10.3 °C 1008.4 hPa North 10.5 km/h 16.7 km/h 93 % 0 mm
06:34 11.3 °C 10.2 °C 1008.4 hPa South 9.3 km/h 18.5 km/h 93 % 0 mm
06:39 11.3 °C 10.3 °C 1008.4 hPa North 9.8 km/h 17.7 km/h 94 % 0 mm
06:44 11.2 °C 10.3 °C 1008.4 hPa South 10.9 km/h 13 km/h 94 % 0 mm
06:49 11.2 °C 10.2 °C 1008.7 hPa South 7.6 km/h 14.8 km/h 94 % 0 mm
06:54 11.1 °C 10.2 °C 1008.7 hPa North 10 km/h 13 km/h 94 % 0 mm
06:59 11.1 °C 10.2 °C 1008.7 hPa South 11.4 km/h 14.8 km/h 94 % 0 mm
07:04 11.2 °C 10.2 °C 1008.7 hPa SSW 13.2 km/h 14.5 km/h 94 % 0 mm
07:09 11.2 °C 10.4 °C 1008.7 hPa SSW 9.5 km/h 14.8 km/h 95 % 0 mm
07:14 11.3 °C 10.5 °C 1008.7 hPa South 7.9 km/h 11.1 km/h 95 % 0 mm
07:19 11.3 °C 10.6 °C 1009 hPa South 10.6 km/h 18.5 km/h 95 % 0 mm
07:24 11.3 °C 10.5 °C 1009 hPa North 14.6 km/h 20.4 km/h 95 % 0 mm
07:29 11.3 °C 10.6 °C 1009 hPa SSE 6 km/h 11.1 km/h 95 % 0 mm
07:39 11.3 °C 10.5 °C 1009 hPa South 7.1 km/h 14.8 km/h 95 % 0 mm
07:44 11.4 °C 10.6 °C 1009 hPa South 8.9 km/h 14.8 km/h 95 % 0 mm
07:49 11.4 °C 10.7 °C 1009 hPa South 9.7 km/h 18.5 km/h 95 % 0 mm
07:54 11.5 °C 10.7 °C 1009 hPa North 10.6 km/h 13 km/h 95 % 0 mm
08:04 11.6 °C 10.8 °C 1009 hPa South 10.3 km/h 16.7 km/h 95 % 0 mm
08:09 11.7 °C 11.1 °C 1009 hPa South 6.8 km/h 9.7 km/h 96 % 0 mm
08:14 11.8 °C 11.2 °C 1009 hPa SSW 14.6 km/h 22.2 km/h 96 % 0 mm
08:19 12 °C 11.4 °C 1009 hPa SSW 16.6 km/h 20.9 km/h 96 % 0 mm
08:24 12.2 °C 11.6 °C 1009 hPa South 18.3 km/h 20.9 km/h 96 % 0 mm
08:29 12.3 °C 11.7 °C 1009 hPa North 11.3 km/h 16.7 km/h 96 % 0 mm
08:34 12.5 °C 11.9 °C 1009.4 hPa SSW 11.9 km/h 17.7 km/h 96 % 0 mm
08:44 12.7 °C 12.1 °C 1009.4 hPa North 20.4 km/h 20.4 km/h 96 % 0 mm
08:49 12.8 °C 12.2 °C 1009.4 hPa South 14.2 km/h 18.5 km/h 96 % 0 mm
08:59 13.1 °C 12.5 °C 1009.4 hPa North 7.7 km/h 11.1 km/h 96 % 0 mm
09:04 13.3 °C 12.7 °C 1009.4 hPa North 15.3 km/h 24.1 km/h 96 % 0 mm
09:09 13.3 °C 12.6 °C 1009.7 hPa SSW 12.7 km/h 19.3 km/h 95 % 0 mm
09:14 13.5 °C 12.7 °C 1009.7 hPa SSE 6.9 km/h 18.5 km/h 95 % 0 mm
09:19 13.9 °C 13.2 °C 1009.7 hPa SSE 10.6 km/h 18.5 km/h 95 % 0 mm
09:24 14.7 °C 13.7 °C 1009.4 hPa SSE 8.9 km/h 18.5 km/h 94 % 0 mm
09:29 15.3 °C 13.8 °C 1009.7 hPa SSE 10.3 km/h 16.7 km/h 91 % 0 mm
09:34 15.7 °C 13.7 °C 1009.4 hPa South 11.7 km/h 18.5 km/h 88 % 0 mm
09:39 16.1 °C 13.6 °C 1009.4 hPa SSE 15 km/h 22.2 km/h 85 % 0 mm
09:44 16.3 °C 13.2 °C 1009.4 hPa South 14.3 km/h 24.1 km/h 82 % 0 mm
09:49 16.6 °C 13.7 °C 1009.4 hPa North 19.5 km/h 22.2 km/h 83 % 0 mm
09:54 17 °C 13.3 °C 1009 hPa South 17.4 km/h 22.2 km/h 79 % 0 mm
09:59 17.2 °C 13.2 °C 1009 hPa South 12.7 km/h 18.5 km/h 77 % 0 mm
10:04 17.6 °C 13.3 °C 1009 hPa SSE 13.2 km/h 22.2 km/h 76 % 0 mm
10:09 17.8 °C 13.3 °C 1009.4 hPa South 9.2 km/h 16.1 km/h 75 % 0 mm
10:14 18 °C 13.1 °C 1009.4 hPa South 19 km/h 19.3 km/h 73 % 0 mm
10:19 18.2 °C 13.1 °C 1009.4 hPa South 23 km/h 31.5 km/h 72 % 0 mm
10:24 18.6 °C 13.2 °C 1009.4 hPa South 12.4 km/h 16.7 km/h 71 % 0 mm
10:34 19.2 °C 13.2 °C 1009.4 hPa SSE 18.5 km/h 29.6 km/h 68 % 0 mm
10:39 19.3 °C 13.3 °C 1009.4 hPa South 11.7 km/h 24.1 km/h 68 % 0 mm
10:49 20 °C 13.4 °C 1009.4 hPa South 14.8 km/h 16.7 km/h 66 % 0 mm
10:54 20.2 °C 13.2 °C 1009.4 hPa SE 16.4 km/h 19.3 km/h 64 % 0 mm
10:59 20.5 °C 13.2 °C 1009.4 hPa SE 18.8 km/h 20.4 km/h 63 % 0 mm
11:04 20.7 °C 12.9 °C 1009 hPa South 16.9 km/h 17.7 km/h 61 % 0 mm
11:09 20.7 °C 12.9 °C 1009 hPa South 12.1 km/h 20.4 km/h 61 % 0 mm
11:14 20.9 °C 12.8 °C 1009 hPa South 18.2 km/h 18.2 km/h 60 % 0 mm
11:20 21.3 °C 12.7 °C 1009 hPa SSE 17.4 km/h 20.9 km/h 58 % 0 mm
11:25 21.5 °C 12.6 °C 1009 hPa SE 11.7 km/h 18.5 km/h 57 % 0 mm
11:30 21.8 °C 12.9 °C 1009 hPa SE 12.7 km/h 18.5 km/h 57 % 0 mm
11:35 22.3 °C 12.8 °C 1009 hPa SSE 19 km/h 19 km/h 55 % 0 mm
11:40 22.3 °C 12.6 °C 1009 hPa SSE 10 km/h 14.8 km/h 54 % 0 mm
11:45 22.4 °C 12.1 °C 1009 hPa South 12.1 km/h 24.1 km/h 52 % 0 mm
11:50 22.4 °C 12.1 °C 1009 hPa SSE 17.2 km/h 20.4 km/h 52 % 0 mm
11:55 22.9 °C 12.2 °C 1009 hPa SSW 11.6 km/h 16.7 km/h 51 % 0 mm
12:00 22.8 °C 12.2 °C 1008.7 hPa South 16.3 km/h 17.7 km/h 51 % 0 mm
12:15 23.6 °C 11.9 °C 1008.4 hPa SE 14.5 km/h 20.4 km/h 48 % 0 mm
12:20 23.7 °C 12.4 °C 1008.7 hPa SSW 12.4 km/h 16.7 km/h 49 % 0 mm
12:25 23.6 °C 11.6 °C 1008.7 hPa South 12.6 km/h 18.5 km/h 47 % 0 mm
12:35 23.9 °C 11.6 °C 1008.7 hPa South 21.4 km/h 31.5 km/h 46 % 0 mm
12:40 23.8 °C 11.8 °C 1008.4 hPa SSW 17.1 km/h 22.2 km/h 47 % 0 mm
12:45 24.2 °C 11.5 °C 1008.4 hPa South 17.4 km/h 25.9 km/h 45 % 0 mm
12:55 24.9 °C 11.2 °C 1008.4 hPa SSW 10.8 km/h 18.5 km/h 42 % 0 mm
13:00 24.7 °C 10.9 °C 1008 hPa SSE 13.2 km/h 19.3 km/h 42 % 0 mm
13:05 25.3 °C 11.1 °C 1008 hPa SSE 15 km/h 22.2 km/h 41 % 0 mm
13:10 25.2 °C 10.3 °C 1008 hPa South 18.7 km/h 27.8 km/h 39 % 0 mm
13:15 25.4 °C 11.2 °C 1008 hPa SE 12.4 km/h 16.7 km/h 41 % 0 mm
13:20 26 °C 10.9 °C 1008 hPa SSE 10.3 km/h 18.5 km/h 39 % 0 mm
13:25 25.9 °C 10.6 °C 1008 hPa South 15.9 km/h 27.8 km/h 38 % 0 mm
13:30 25.8 °C 10.4 °C 1007.7 hPa ESE 13.4 km/h 20.4 km/h 38 % 0 mm
13:35 26.2 °C 10.4 °C 1007.7 hPa SE 15.9 km/h 24.1 km/h 37 % 0 mm
13:40 26.3 °C 9.7 °C 1008 hPa South 12.7 km/h 18.5 km/h 35 % 0 mm
13:45 26.3 °C 10.4 °C 1007.7 hPa SE 15.1 km/h 20.4 km/h 37 % 0 mm
13:55 26.6 °C 9.4 °C 1007.7 hPa SSE 14.6 km/h 18.5 km/h 34 % 0 mm
14:00 26.8 °C 9.6 °C 1007.7 hPa South 14.8 km/h 24.1 km/h 34 % 0 mm
14:05 26.7 °C 9.6 °C 1007.7 hPa SSW 10.3 km/h 16.7 km/h 34 % 0 mm
14:10 26.7 °C 9.1 °C 1007.3 hPa SSW 15.3 km/h 18.5 km/h 33 % 0 mm
14:20 26.9 °C 9.7 °C 1007.3 hPa South 14.5 km/h 18.5 km/h 34 % 0 mm
14:30 27.6 °C 9.4 °C 1007.3 hPa SSE 12.4 km/h 18.5 km/h 32 % 0 mm
14:35 27.7 °C 8.5 °C 1007.3 hPa SSE 13.4 km/h 20.4 km/h 30 % 0 mm
14:40 27.7 °C 9 °C 1007.3 hPa South 2.6 km/h 5.6 km/h 31 % 0 mm
14:45 28.1 °C 9.4 °C 1007.3 hPa SSE 10.3 km/h 14.8 km/h 31 % 0 mm
14:50 27.9 °C 9.2 °C 1007 hPa SE 10.3 km/h 14.8 km/h 31 % 0 mm
15:00 28.2 °C 8.4 °C 1007.3 hPa South 18 km/h 29.6 km/h 29 % 0 mm
15:05 27.9 °C 8.3 °C 1007.3 hPa South 12.7 km/h 20.4 km/h 29 % 0 mm
15:10 28.2 °C 8 °C 1007.3 hPa SE 11.6 km/h 20.4 km/h 28 % 0 mm
15:15 28.6 °C 9.3 °C 1007 hPa SSE 13.5 km/h 18.5 km/h 30 % 0 mm
15:20 28.4 °C 9.2 °C 1007 hPa SSE 6.9 km/h 11.1 km/h 30 % 0 mm
15:25 28.7 °C 8.4 °C 1007 hPa SSE 11.4 km/h 18.5 km/h 28 % 0 mm
15:30 28.8 °C 8.4 °C 1007 hPa South 18.5 km/h 27.8 km/h 28 % 0 mm
15:35 28.5 °C 8.7 °C 1007 hPa South 13.4 km/h 18.5 km/h 29 % 0 mm
15:40 28.6 °C 8.3 °C 1006.7 hPa SSW 10 km/h 16.7 km/h 28 % 0 mm
15:45 28.7 °C 8.3 °C 1007 hPa South 13.5 km/h 24.1 km/h 28 % 0 mm
15:50 28.8 °C 9 °C 1006.7 hPa SE 18.3 km/h 24.1 km/h 29 % 0 mm
15:55 28.8 °C 8.4 °C 1006.7 hPa SSE 6.4 km/h 18.5 km/h 28 % 0 mm
16:05 29.1 °C 8.7 °C 1006.7 hPa SE 14.6 km/h 24.1 km/h 28 % 0 mm
16:10 29.3 °C 8.4 °C 1006.7 hPa SSE 9.8 km/h 16.7 km/h 27 % 0 mm
16:20 29 °C 8.1 °C 1006.3 hPa SSE 14.6 km/h 18.5 km/h 27 % 0 mm
16:25 29.3 °C 8.3 °C 1006.3 hPa South 11.3 km/h 19.3 km/h 27 % 0 mm
16:30 29.2 °C 7.7 °C 1006.3 hPa South 10.6 km/h 14.8 km/h 26 % 0 mm
16:35 29.2 °C 7.7 °C 1006.3 hPa SSW 14.5 km/h 31.5 km/h 26 % 0 mm
16:40 29.2 °C 8.3 °C 1006.3 hPa South 11.7 km/h 13 km/h 27 % 0 mm
16:55 29.3 °C 8.3 °C 1006 hPa SSE 9.5 km/h 19.3 km/h 27 % 0 mm
17:00 29.5 °C 7.4 °C 1006 hPa South 12.2 km/h 24.1 km/h 25 % 0 mm
17:05 29.5 °C 8 °C 1006 hPa SSE 18.5 km/h 27.8 km/h 26 % 0 mm
17:10 29.7 °C 8.1 °C 1005.6 hPa SE 13.8 km/h 24.1 km/h 26 % 0 mm
17:15 29.6 °C 7.5 °C 1005.6 hPa SSW 15.3 km/h 25.7 km/h 25 % 0 mm
17:20 29.5 °C 8 °C 1005.6 hPa South 8 km/h 11.3 km/h 26 % 0 mm
17:25 29.6 °C 7.4 °C 1005.6 hPa SSW 7.4 km/h 16.7 km/h 25 % 0 mm
17:30 29.6 °C 8 °C 1006 hPa SE 15.8 km/h 24.1 km/h 26 % 0 mm
17:35 29.5 °C 8 °C 1005.6 hPa SE 9.2 km/h 22.2 km/h 26 % 0 mm
17:40 29.7 °C 8.1 °C 1005.6 hPa South 16.6 km/h 18.5 km/h 26 % 0 mm
17:45 29.6 °C 8.1 °C 1005.6 hPa South 9.5 km/h 18.5 km/h 26 % 0 mm
17:50 29.7 °C 7.6 °C 1005.6 hPa South 11.7 km/h 16.7 km/h 25 % 0 mm
17:55 29.6 °C 8.1 °C 1005.6 hPa South 9.7 km/h 13 km/h 26 % 0 mm
18:00 29.8 °C 7.1 °C 1005.6 hPa ESE 12.4 km/h 22.2 km/h 24 % 0 mm
18:05 29.7 °C 7 °C 1005.6 hPa SSW 14.5 km/h 25.9 km/h 24 % 0 mm
18:10 29.5 °C 7.4 °C 1005.6 hPa SSE 9.5 km/h 11.3 km/h 25 % 0 mm
18:16 29.4 °C 7.3 °C 1005.6 hPa SE 13.8 km/h 20.4 km/h 25 % 0 mm
18:20 29.3 °C 7.3 °C 1005.6 hPa SE 8.9 km/h 18.5 km/h 25 % 0 mm
18:26 29.4 °C 6.8 °C 1005.6 hPa South 12.1 km/h 18.5 km/h 24 % 0 mm
18:36 29.2 °C 7.1 °C 1005.6 hPa South 11.1 km/h 18.5 km/h 25 % 0 mm
18:40 29.1 °C 7.1 °C 1005.6 hPa SSE 12.2 km/h 18.5 km/h 25 % 0 mm
18:45 29.2 °C 7.2 °C 1005.6 hPa SSE 10.3 km/h 18.5 km/h 25 % 0 mm
18:50 29.2 °C 6.5 °C 1005.6 hPa SSE 12.6 km/h 18.5 km/h 24 % 0 mm
18:56 29.2 °C 7.2 °C 1005.6 hPa South 15.3 km/h 18.5 km/h 25 % 0 mm
19:01 29.2 °C 7.1 °C 1005.6 hPa South 21.9 km/h 24.1 km/h 25 % 0 mm
19:06 29 °C 7 °C 1005.6 hPa SSE 13.2 km/h 20.4 km/h 25 % 0 mm
19:11 28.8 °C 6.2 °C 1005.3 hPa South 13.2 km/h 16.7 km/h 24 % 0 mm
19:16 28.7 °C 6.2 °C 1005.3 hPa SSE 14 km/h 20.4 km/h 24 % 0 mm
19:21 28.7 °C 6.1 °C 1005.3 hPa SSE 10.9 km/h 18.5 km/h 24 % 0 mm
19:31 28.5 °C 6.6 °C 1005.6 hPa South 16.7 km/h 25.9 km/h 25 % 0 mm
19:36 28.3 °C 7.5 °C 1005.3 hPa SSW 19.2 km/h 22.5 km/h 27 % 0 mm
19:41 27.4 °C 11.1 °C 1005.6 hPa SSW 16.6 km/h 29.6 km/h 36 % 0 mm
19:46 26.8 °C 11.3 °C 1005.6 hPa SSW 16.9 km/h 22.2 km/h 38 % 0 mm
19:51 26.6 °C 11.4 °C 1006 hPa North 9.8 km/h 24.1 km/h 39 % 0 mm
19:56 26.3 °C 11.6 °C 1006.3 hPa South 21.1 km/h 24.1 km/h 40 % 0 mm
20:01 25.9 °C 11.7 °C 1006.3 hPa SE 11.7 km/h 20.4 km/h 41 % 0 mm
20:06 25.8 °C 11.9 °C 1006.3 hPa SE 16.1 km/h 20.4 km/h 42 % 0 mm
20:11 25.5 °C 11.7 °C 1006.3 hPa South 19 km/h 24.1 km/h 42 % 0 mm
20:16 25.3 °C 11.8 °C 1006.7 hPa South 14.5 km/h 18.5 km/h 43 % 0 mm
20:21 25 °C 11.9 °C 1006.7 hPa SSW 12.9 km/h 18.5 km/h 44 % 0 mm
20:26 24.6 °C 11.9 °C 1006.7 hPa South 13.5 km/h 24.1 km/h 45 % 0 mm
20:36 23.9 °C 11.9 °C 1007 hPa South 15.9 km/h 24.1 km/h 47 % 0 mm
20:41 23.7 °C 12.3 °C 1007 hPa South 14.5 km/h 19.3 km/h 49 % 0 mm
20:46 23.4 °C 12.1 °C 1007 hPa South 13.2 km/h 18.5 km/h 49 % 0 mm
20:51 23.1 °C 12.1 °C 1007.3 hPa SSW 14.6 km/h 22.2 km/h 50 % 0 mm
20:56 22.7 °C 12 °C 1007.3 hPa South 10.5 km/h 14.8 km/h 51 % 0 mm
21:01 22.3 °C 12 °C 1007.3 hPa SSW 10.1 km/h 14.8 km/h 52 % 0 mm
21:06 21.9 °C 11.9 °C 1007.3 hPa SSW 16.9 km/h 24.1 km/h 53 % 0 mm
21:11 21.7 °C 11.9 °C 1007.3 hPa South 15.9 km/h 20.4 km/h 54 % 0 mm
21:16 21.4 °C 12 °C 1007.3 hPa South 8.5 km/h 13 km/h 55 % 0 mm
21:21 21.2 °C 12.1 °C 1007.7 hPa SSW 14.2 km/h 20.4 km/h 56 % 0 mm
21:26 20.9 °C 11.8 °C 1007.7 hPa SSW 13.4 km/h 20.9 km/h 56 % 0 mm
21:31 20.7 °C 11.8 °C 1007.7 hPa SSW 10.9 km/h 20.9 km/h 57 % 0 mm
21:36 20.4 °C 11.8 °C 1007.7 hPa SSW 11.9 km/h 20.9 km/h 58 % 0 mm
21:41 20.1 °C 11.8 °C 1007.7 hPa North 12.1 km/h 16.7 km/h 59 % 0 mm
21:46 19.9 °C 11.9 °C 1007.7 hPa WSW 17.9 km/h 22.2 km/h 60 % 0 mm
21:51 19.6 °C 11.6 °C 1007.7 hPa SSW 16.3 km/h 20.4 km/h 60 % 0 mm
21:56 19.4 °C 11.7 °C 1008 hPa SSW 16.1 km/h 25.9 km/h 61 % 0 mm
22:01 19.2 °C 11.8 °C 1008 hPa SSW 15.6 km/h 18.5 km/h 62 % 0 mm
22:06 19 °C 11.6 °C 1008 hPa SW 16.9 km/h 24.1 km/h 62 % 0 mm
22:11 18.8 °C 11.6 °C 1008.4 hPa South 11.7 km/h 17.7 km/h 63 % 0 mm
22:16 18.6 °C 11.6 °C 1008 hPa SSW 19.6 km/h 25.9 km/h 64 % 0 mm
22:21 18.4 °C 11.4 °C 1008 hPa North 18.7 km/h 25.9 km/h 64 % 0 mm
22:26 18.2 °C 11.6 °C 1008.4 hPa SSW 12.9 km/h 24.1 km/h 65 % 0 mm
22:31 18.1 °C 11.6 °C 1008.4 hPa SSW 13.2 km/h 18.5 km/h 66 % 0 mm
22:36 17.9 °C 11.4 °C 1008.4 hPa SSW 13.7 km/h 18.5 km/h 66 % 0 mm
22:41 17.8 °C 11.3 °C 1008.4 hPa SSW 13.2 km/h 20.9 km/h 66 % 0 mm
22:46 17.7 °C 11.4 °C 1008.4 hPa SSW 10.3 km/h 18.5 km/h 67 % 0 mm
22:51 17.5 °C 11.3 °C 1008.4 hPa SSW 8.9 km/h 13 km/h 67 % 0 mm
22:56 17.3 °C 11.4 °C 1008 hPa SSW 13.5 km/h 20.4 km/h 68 % 0 mm
23:01 17.2 °C 11.3 °C 1008 hPa South 9.8 km/h 18.5 km/h 68 % 0 mm
23:06 17.1 °C 11.4 °C 1008 hPa SSW 11.7 km/h 18.5 km/h 69 % 0 mm
23:11 17.1 °C 11.3 °C 1008 hPa SSW 12.6 km/h 16.7 km/h 69 % 0 mm
23:16 16.9 °C 11.2 °C 1008 hPa SSW 11.6 km/h 16.7 km/h 69 % 0 mm
23:21 16.9 °C 11.4 °C 1008 hPa SSW 12.7 km/h 18.5 km/h 70 % 0 mm
23:26 16.9 °C 11.4 °C 1008 hPa SSW 10.8 km/h 13 km/h 70 % 0 mm
23:31 16.8 °C 11.3 °C 1008 hPa North 10.8 km/h 16.7 km/h 70 % 0 mm
23:36 16.7 °C 11.2 °C 1008 hPa South 8 km/h 12.9 km/h 70 % 0 mm
23:41 16.7 °C 11.4 °C 1008 hPa South 7.7 km/h 13 km/h 71 % 0 mm
23:46 16.6 °C 11.3 °C 1008 hPa South 9.3 km/h 13 km/h 71 % 0 mm
23:51 16.4 °C 11.2 °C 1008 hPa South 8.9 km/h 13 km/h 71 % 0 mm
23:56 16.3 °C 11.3 °C 1008 hPa SSW 6.1 km/h 8 km/h 72 % 0 mm
Ararat Weather
Compliments of Weather Underground - 2.25 mb
Click here to send mail.


ABOUT

Live weather data from Ararat, Victoria, Australia, 3377
Data uploaded from Cumulus every 5 minutes to Weather Underground.
This site then downloads the raw data for formatting and display.
Metric and imperial data can be displayed. Graphs and historical data available.
Includes Sun and Moon times and rain image live from BOM.

Check out Ararat Weather on Facebook, Twitter and Google +

Help support ongoing costs by checking out the ads





Follow @AraratWeather